createdAt,value
2023-02-13T00:00:17.754Z,1.49
2023-02-13T00:02:44.252Z,1.51
2023-02-13T00:05:11.007Z,1.47
2023-02-13T00:07:37.492Z,1.45
2023-02-13T00:10:04.418Z,1.42
2023-02-13T00:12:31.003Z,1.40
2023-02-13T00:14:59.140Z,1.37
2023-02-13T00:17:26.179Z,1.41
2023-02-13T00:19:52.823Z,1.38
2023-02-13T00:22:19.416Z,1.36
2023-02-13T00:24:46.242Z,1.31
2023-02-13T00:27:12.937Z,1.30
2023-02-13T00:29:39.439Z,1.28
2023-02-13T00:32:06.120Z,1.27
2023-02-13T00:34:32.718Z,1.30
2023-02-13T00:36:59.212Z,1.29
2023-02-13T00:39:25.812Z,1.25
2023-02-13T00:41:52.297Z,1.19
2023-02-13T00:44:18.819Z,1.24
2023-02-13T00:46:45.357Z,1.24
2023-02-13T00:49:11.853Z,1.21
2023-02-13T00:51:38.373Z,1.20
2023-02-13T00:54:04.988Z,1.16
2023-02-13T00:56:31.538Z,1.11
2023-02-13T00:58:57.991Z,1.12
2023-02-13T01:01:24.480Z,1.11
2023-02-13T01:03:51.029Z,1.13
2023-02-13T01:06:17.661Z,1.16
2023-02-13T01:08:44.241Z,1.07
2023-02-13T01:11:10.751Z,1.02
2023-02-13T01:13:37.419Z,1.03
2023-02-13T01:16:05.122Z,0.97
2023-02-13T01:18:31.686Z,0.95
2023-02-13T01:21:06.689Z,0.87
2023-02-13T01:23:35.736Z,0.83
2023-02-13T01:26:07.357Z,0.81
2023-02-13T01:28:34.072Z,0.75
2023-02-13T01:31:01.438Z,0.58
2023-02-13T01:33:29.400Z,0.53
2023-02-13T01:35:56.036Z,0.56
2023-02-13T01:38:22.594Z,0.61
2023-02-13T01:40:51.829Z,0.69
2023-02-13T01:43:19.012Z,0.71
2023-02-13T01:45:48.781Z,0.66
2023-02-13T01:48:17.484Z,0.57
2023-02-13T01:50:50.125Z,0.60
2023-02-13T01:53:35.739Z,0.59
2023-02-13T01:56:11.697Z,0.62
2023-02-13T01:58:41.237Z,0.68
2023-02-13T02:01:08.907Z,0.76
2023-02-13T02:03:49.446Z,0.78
2023-02-13T02:06:26.321Z,0.74
2023-02-13T02:08:56.537Z,0.78
2023-02-13T02:11:32.216Z,0.84
2023-02-13T02:13:59.176Z,0.83
2023-02-13T02:16:26.312Z,0.84
2023-02-13T02:18:53.303Z,0.87
2023-02-13T02:21:47.597Z,0.84
2023-02-13T02:24:44.667Z,0.81
2023-02-13T02:27:29.795Z,0.79
2023-02-13T02:30:27.678Z,0.77
2023-02-13T02:33:02.855Z,0.76
2023-02-13T02:35:52.248Z,0.73
2023-02-13T02:38:49.993Z,0.71
2023-02-13T02:41:45.040Z,0.71
2023-02-13T02:44:29.587Z,0.73
2023-02-13T02:47:34.582Z,0.68
2023-02-13T02:50:16.229Z,0.67
2023-02-13T02:53:03.895Z,0.64
2023-02-13T02:55:53.032Z,0.61
2023-02-13T02:58:49.794Z,0.59
2023-02-13T03:01:39.542Z,0.59
2023-02-13T03:04:25.332Z,0.58
2023-02-13T03:07:07.015Z,0.59
2023-02-13T03:09:57.886Z,0.62
2023-02-13T03:12:48.738Z,0.61
2023-02-13T03:15:15.296Z,0.57
2023-02-13T03:18:01.909Z,0.56
2023-02-13T03:20:57.418Z,0.57
2023-02-13T03:23:47.583Z,0.51
2023-02-13T03:26:14.068Z,0.50
2023-02-13T03:29:01.948Z,0.44
2023-02-13T03:31:54.176Z,0.46
2023-02-13T03:34:25.890Z,0.46
2023-02-13T03:37:36.050Z,0.46
2023-02-13T03:40:02.387Z,0.45
2023-02-13T03:42:47.282Z,0.46
2023-02-13T03:45:44.449Z,0.42
2023-02-13T03:48:33.267Z,0.44
2023-02-13T03:51:02.487Z,0.41
2023-02-13T03:53:33.160Z,0.42
2023-02-13T03:56:21.673Z,0.40
2023-02-13T03:59:13.039Z,0.35
2023-02-13T04:01:40.174Z,0.37
2023-02-13T04:04:17.497Z,0.41
2023-02-13T04:06:43.984Z,0.39
2023-02-13T04:09:10.646Z,0.40
2023-02-13T04:11:48.963Z,0.43
2023-02-13T04:14:23.940Z,0.41
2023-02-13T04:16:56.169Z,0.42
2023-02-13T04:19:25.635Z,0.43
2023-02-13T04:21:58.004Z,0.40
2023-02-13T04:24:26.035Z,0.45
2023-02-13T04:26:53.678Z,0.44
2023-02-13T04:29:25.596Z,0.40
2023-02-13T04:31:52.294Z,0.39
2023-02-13T04:34:18.948Z,0.43
2023-02-13T04:36:45.516Z,0.41
2023-02-13T04:39:12.807Z,0.41
2023-02-13T04:41:39.310Z,0.41
2023-02-13T04:44:05.908Z,0.37
2023-02-13T04:46:32.416Z,0.37
2023-02-13T04:48:58.882Z,0.41
2023-02-13T04:51:25.393Z,0.41
2023-02-13T04:53:51.947Z,0.41
2023-02-13T04:56:19.918Z,0.43
2023-02-13T04:58:46.610Z,0.41
2023-02-13T05:01:15.321Z,0.41
2023-02-13T05:03:42.361Z,0.38
2023-02-13T05:06:09.179Z,0.38
2023-02-13T05:08:35.762Z,0.37
2023-02-13T05:11:02.248Z,0.35
2023-02-13T05:13:28.823Z,0.24
2023-02-13T05:15:55.564Z,0.16
2023-02-13T05:18:22.081Z,0.14
2023-02-13T05:21:07.220Z,0.17
2023-02-13T05:23:33.739Z,0.14
2023-02-13T05:26:00.390Z,0.08
2023-02-13T05:28:45.420Z,0.05
2023-02-13T05:31:12.083Z,-0.05
2023-02-13T05:33:38.728Z,-0.01
2023-02-13T05:36:05.711Z,-0.04
2023-02-13T05:38:32.284Z,-0.10
2023-02-13T05:41:00.563Z,-0.07
2023-02-13T05:43:28.048Z,-0.05
2023-02-13T05:46:08.987Z,-0.06
2023-02-13T05:48:36.487Z,-0.03
2023-02-13T05:51:03.108Z,0.02
2023-02-13T05:53:29.931Z,0.01
2023-02-13T05:55:56.779Z,-0.06
2023-02-13T05:58:23.609Z,-0.03
2023-02-13T06:00:50.148Z,-0.01
2023-02-13T06:03:16.723Z,-0.03
2023-02-13T06:05:43.180Z,0.00
2023-02-13T06:08:09.718Z,0.04
2023-02-13T06:10:36.233Z,0.07
2023-02-13T06:13:02.807Z,0.07
2023-02-13T06:15:29.329Z,0.08
2023-02-13T06:17:55.819Z,0.10
2023-02-13T06:20:22.332Z,0.10
2023-02-13T06:22:52.608Z,0.01
2023-02-13T06:25:19.608Z,-0.04
2023-02-13T06:27:46.308Z,-0.03
2023-02-13T06:30:13.804Z,-0.03
2023-02-13T06:32:40.310Z,0.01
2023-02-13T06:35:07.724Z,0.06
2023-02-13T06:37:34.310Z,0.07
2023-02-13T06:40:01.240Z,0.11
2023-02-13T06:42:27.794Z,0.16
2023-02-13T06:44:54.318Z,0.22
2023-02-13T06:47:20.841Z,0.23
2023-02-13T06:49:47.335Z,0.24
2023-02-13T06:52:13.834Z,0.31
2023-02-13T06:54:47.201Z,0.37
2023-02-13T06:57:15.262Z,0.37
2023-02-13T06:59:42.116Z,0.36
2023-02-13T07:02:12.163Z,0.37
2023-02-13T07:04:38.655Z,0.37
2023-02-13T07:07:05.285Z,0.39
2023-02-13T07:09:32.256Z,0.42
2023-02-13T07:11:58.926Z,0.45
2023-02-13T07:14:25.390Z,0.48
2023-02-13T07:16:51.893Z,0.48
2023-02-13T07:19:18.775Z,0.57
2023-02-13T07:21:45.261Z,0.53
2023-02-13T07:24:11.795Z,0.56
2023-02-13T07:26:38.396Z,0.55
2023-02-13T07:29:11.467Z,0.48
2023-02-13T07:31:39.359Z,0.53
2023-02-13T07:34:05.943Z,0.58
2023-02-13T07:36:32.484Z,0.63
2023-02-13T07:38:58.947Z,0.69
2023-02-13T07:41:28.538Z,0.71
2023-02-13T07:43:55.184Z,0.70
2023-02-13T07:46:21.794Z,0.71
2023-02-13T07:48:48.319Z,0.68
2023-02-13T07:51:14.849Z,0.66
2023-02-13T07:53:41.319Z,0.66
2023-02-13T07:56:09.473Z,0.70
2023-02-13T07:58:40.085Z,0.81
2023-02-13T08:01:11.632Z,0.86
2023-02-13T08:03:38.758Z,0.86
2023-02-13T08:06:06.501Z,0.88
2023-02-13T08:08:33.484Z,0.94
2023-02-13T08:11:26.968Z,0.92
2023-02-13T08:13:53.463Z,0.96
2023-02-13T08:16:20.039Z,0.99
2023-02-13T08:18:46.576Z,1.07
2023-02-13T08:21:14.957Z,1.08
2023-02-13T08:23:41.581Z,1.11
2023-02-13T08:26:08.097Z,1.11
2023-02-13T08:28:34.679Z,1.16
2023-02-13T08:31:01.271Z,1.19
2023-02-13T08:33:27.794Z,1.14
2023-02-13T08:35:54.388Z,1.04
2023-02-13T08:38:21.293Z,1.06
2023-02-13T08:40:47.768Z,1.07
2023-02-13T08:43:14.342Z,0.97
2023-02-13T08:45:40.912Z,0.97
2023-02-13T08:48:07.546Z,0.97
2023-02-13T08:50:36.328Z,0.84
2023-02-13T08:53:04.029Z,0.86
2023-02-13T08:55:31.549Z,0.85
2023-02-13T08:58:04.954Z,0.74
2023-02-13T09:00:31.821Z,0.63
2023-02-13T09:03:02.653Z,0.60
2023-02-13T09:05:31.580Z,0.66
2023-02-13T09:08:03.582Z,0.89
2023-02-13T09:10:32.117Z,0.93
2023-02-13T09:12:59.186Z,0.97
2023-02-13T09:15:25.642Z,1.11
2023-02-13T09:17:52.119Z,1.25
2023-02-13T09:20:19.109Z,1.32
2023-02-13T09:22:45.629Z,1.32
2023-02-13T09:25:12.185Z,1.44
2023-02-13T09:27:41.233Z,1.47
2023-02-13T09:30:10.186Z,1.52
2023-02-13T09:32:40.012Z,1.49
2023-02-13T09:35:06.577Z,1.59
2023-02-13T09:37:33.143Z,1.73
2023-02-13T09:39:59.692Z,1.82
2023-02-13T09:42:33.025Z,1.83
2023-02-13T09:45:03.113Z,1.73
2023-02-13T09:47:43.285Z,1.82
2023-02-13T09:50:13.045Z,1.91
2023-02-13T09:52:41.232Z,2.03
2023-02-13T09:55:16.967Z,2.13
2023-02-13T09:57:52.892Z,2.21
2023-02-13T10:00:31.607Z,2.07
2023-02-13T10:02:58.223Z,2.15
2023-02-13T10:05:46.618Z,2.17
2023-02-13T10:08:31.443Z,2.08
2023-02-13T10:11:03.743Z,2.07
2023-02-13T10:13:35.830Z,2.21
2023-02-13T10:16:29.894Z,2.26
2023-02-13T10:19:14.990Z,2.32
2023-02-13T10:21:50.921Z,2.29
2023-02-13T10:24:35.696Z,2.36
2023-02-13T10:27:14.973Z,2.40
2023-02-13T10:30:06.232Z,2.30
2023-02-13T10:33:19.984Z,2.40
2023-02-13T10:35:53.345Z,2.52
2023-02-13T10:38:22.279Z,2.66
2023-02-13T10:40:59.466Z,2.69
2023-02-13T10:43:30.104Z,2.78
2023-02-13T10:46:22.329Z,2.87
2023-02-13T10:49:46.312Z,2.64
2023-02-13T10:52:26.883Z,2.65
2023-02-13T10:55:23.126Z,2.70
2023-02-13T10:58:08.751Z,2.60
2023-02-13T11:00:43.196Z,2.60
2023-02-13T11:03:20.808Z,2.67
2023-02-13T11:05:47.987Z,2.54
2023-02-13T11:08:23.241Z,2.43
2023-02-13T11:10:50.651Z,2.65
2023-02-13T11:13:21.389Z,2.64
2023-02-13T11:16:07.573Z,2.64
2023-02-13T11:18:39.957Z,2.62
2023-02-13T11:21:16.283Z,2.76
2023-02-13T11:23:45.156Z,2.77
2023-02-13T11:26:36.293Z,2.82
2023-02-13T11:29:36.404Z,3.02
2023-02-13T11:32:32.425Z,2.98
2023-02-13T11:35:21.317Z,2.95
2023-02-13T11:37:47.826Z,2.93
2023-02-13T11:40:31.692Z,2.80
2023-02-13T11:42:58.291Z,2.98
2023-02-13T11:45:26.065Z,3.13
2023-02-13T11:47:55.246Z,3.12
2023-02-13T11:50:27.403Z,3.10
2023-02-13T11:53:16.332Z,3.15
2023-02-13T11:55:43.989Z,3.31
2023-02-13T11:58:10.471Z,3.42
2023-02-13T12:00:40.506Z,3.45
2023-02-13T12:03:22.221Z,3.48
2023-02-13T12:06:18.583Z,3.58
2023-02-13T12:08:48.321Z,3.71
2023-02-13T12:11:38.570Z,3.74
2023-02-13T12:14:05.085Z,3.83
2023-02-13T12:16:50.520Z,3.76
2023-02-13T12:19:29.918Z,3.81
2023-02-13T12:22:15.080Z,3.81
2023-02-13T12:25:18.289Z,3.71
2023-02-13T12:28:03.431Z,3.68
2023-02-13T12:30:48.209Z,3.76
2023-02-13T12:33:33.376Z,3.77
2023-02-13T12:36:09.009Z,3.83
2023-02-13T12:38:54.217Z,3.74
2023-02-13T12:41:28.659Z,3.76
2023-02-13T12:44:13.344Z,3.77
2023-02-13T12:46:45.814Z,3.77
2023-02-13T12:49:30.497Z,3.76
2023-02-13T12:52:37.172Z,3.77
2023-02-13T12:55:28.511Z,3.72
2023-02-13T12:58:13.526Z,3.75
2023-02-13T13:00:55.070Z,3.64
2023-02-13T13:03:33.951Z,3.77
2023-02-13T13:06:22.600Z,3.81
2023-02-13T13:09:22.599Z,3.85
2023-02-13T13:12:01.819Z,3.88
2023-02-13T13:15:23.866Z,3.90
2023-02-13T13:18:07.931Z,3.90
2023-02-13T13:20:58.036Z,3.94
2023-02-13T13:23:24.773Z,4.04
2023-02-13T13:25:51.192Z,3.97
2023-02-13T13:28:22.248Z,3.96
2023-02-13T13:30:49.639Z,4.03
2023-02-13T13:33:19.999Z,3.97
2023-02-13T13:36:09.544Z,3.97
2023-02-13T13:38:46.010Z,4.07
2023-02-13T13:41:23.747Z,4.05
2023-02-13T13:44:14.653Z,4.01
2023-02-13T13:46:50.810Z,3.83
2023-02-13T13:49:25.875Z,3.79
2023-02-13T13:51:52.488Z,3.90
2023-02-13T13:54:22.912Z,3.87
2023-02-13T13:57:02.254Z,3.88
2023-02-13T13:59:37.785Z,3.94
2023-02-13T14:02:19.486Z,4.05
2023-02-13T14:05:17.450Z,4.13
2023-02-13T14:07:45.463Z,4.20
2023-02-13T14:10:20.895Z,4.18
2023-02-13T14:12:49.651Z,4.24
2023-02-13T14:15:34.915Z,4.25
2023-02-13T14:18:07.960Z,4.21
2023-02-13T14:20:38.818Z,4.06
2023-02-13T14:23:35.952Z,3.97
2023-02-13T14:26:30.250Z,3.95
2023-02-13T14:29:03.566Z,3.84
2023-02-13T14:31:39.399Z,3.75
2023-02-13T14:34:05.881Z,3.73
2023-02-13T14:36:42.074Z,3.63
2023-02-13T14:39:23.551Z,3.62
2023-02-13T14:41:55.810Z,3.57
2023-02-13T14:44:36.123Z,3.52
2023-02-13T14:47:20.402Z,3.50
2023-02-13T14:49:49.532Z,3.44
2023-02-13T14:52:26.280Z,3.39
2023-02-13T14:54:58.266Z,3.30
2023-02-13T14:57:51.850Z,3.29
2023-02-13T15:00:31.329Z,3.26
2023-02-13T15:03:18.073Z,3.30
2023-02-13T15:05:51.746Z,3.23
2023-02-13T15:08:21.838Z,3.17
2023-02-13T15:10:52.699Z,3.20
2023-02-13T15:13:23.685Z,3.17
2023-02-13T15:16:13.747Z,3.20
2023-02-13T15:18:55.360Z,3.13
2023-02-13T15:21:32.987Z,3.18
2023-02-13T15:23:59.622Z,3.13
2023-02-13T15:26:30.517Z,3.07
2023-02-13T15:29:11.376Z,3.00
2023-02-13T15:31:40.582Z,2.92
2023-02-13T15:34:32.237Z,2.88
2023-02-13T15:36:58.854Z,2.85
2023-02-13T15:39:28.433Z,2.82
2023-02-13T15:41:59.109Z,2.79
2023-02-13T15:44:35.331Z,2.76
2023-02-13T15:47:07.853Z,2.70
2023-02-13T15:49:42.220Z,2.62
2023-02-13T15:52:18.085Z,2.63
2023-02-13T15:54:50.107Z,2.61
2023-02-13T15:57:17.710Z,2.60
2023-02-13T15:59:45.223Z,2.57
2023-02-13T16:02:19.771Z,2.50
2023-02-13T16:04:47.803Z,2.44
2023-02-13T16:07:14.819Z,2.42
2023-02-13T16:09:42.064Z,2.39
2023-02-13T16:12:25.758Z,2.36
2023-02-13T16:14:56.812Z,2.33
2023-02-13T16:17:38.431Z,2.32
2023-02-13T16:20:08.595Z,2.27
2023-02-13T16:22:37.600Z,2.28
2023-02-13T16:25:13.233Z,2.25
2023-02-13T16:27:56.921Z,2.25
2023-02-13T16:30:41.349Z,2.25
2023-02-13T16:33:16.723Z,2.20
2023-02-13T16:35:49.211Z,2.17
2023-02-13T16:38:35.421Z,2.16
2023-02-13T16:41:05.907Z,2.15
2023-02-13T16:43:52.094Z,2.15
2023-02-13T16:46:27.441Z,2.13
2023-02-13T16:48:57.126Z,2.08
2023-02-13T16:51:42.202Z,2.03
2023-02-13T16:54:11.662Z,2.04
2023-02-13T16:56:41.548Z,2.04
2023-02-13T16:59:29.093Z,1.99
2023-02-13T17:02:16.143Z,1.88
2023-02-13T17:04:51.586Z,1.78
2023-02-13T17:07:21.026Z,1.75
2023-02-13T17:10:28.168Z,1.74
2023-02-13T17:12:56.510Z,1.75
2023-02-13T17:15:25.096Z,1.77
2023-02-13T17:17:51.691Z,1.80
2023-02-13T17:20:22.179Z,1.81
2023-02-13T17:22:50.998Z,1.80
2023-02-13T17:25:27.590Z,1.74
2023-02-13T17:28:11.512Z,1.65
2023-02-13T17:30:38.096Z,1.59
2023-02-13T17:33:13.419Z,1.52
2023-02-13T17:35:39.933Z,1.47
2023-02-13T17:38:08.323Z,1.39
2023-02-13T17:40:35.020Z,1.39
2023-02-13T17:43:02.131Z,1.44
2023-02-13T17:45:30.965Z,1.48
2023-02-13T17:47:58.089Z,1.51
2023-02-13T17:50:27.410Z,1.45
2023-02-13T17:52:54.766Z,1.46
2023-02-13T17:55:27.176Z,1.47
2023-02-13T17:57:56.577Z,1.45
2023-02-13T18:00:25.108Z,1.51
2023-02-13T18:02:51.661Z,1.56
2023-02-13T18:05:19.002Z,1.58
2023-02-13T18:07:46.832Z,1.60
2023-02-13T18:10:22.222Z,1.65
2023-02-13T18:12:49.949Z,1.64
2023-02-13T18:15:16.883Z,1.65
2023-02-13T18:17:43.785Z,1.69
2023-02-13T18:20:16.630Z,1.69
2023-02-13T18:22:43.918Z,1.63
2023-02-13T18:25:11.946Z,1.61
2023-02-13T18:27:38.551Z,1.63
2023-02-13T18:30:06.216Z,1.64
2023-02-13T18:32:33.041Z,1.60
2023-02-13T18:34:59.690Z,1.62
2023-02-13T18:37:29.402Z,1.61
2023-02-13T18:39:56.768Z,1.59
2023-02-13T18:42:23.265Z,1.56
2023-02-13T18:44:49.761Z,1.54
2023-02-13T18:47:16.234Z,1.55
2023-02-13T18:49:42.800Z,1.55
2023-02-13T18:52:09.372Z,1.54
2023-02-13T18:54:36.143Z,1.52
2023-02-13T18:57:02.636Z,1.52
2023-02-13T18:59:29.126Z,1.48
2023-02-13T19:01:55.638Z,1.47
2023-02-13T19:04:22.435Z,1.46
2023-02-13T19:06:49.004Z,1.46
2023-02-13T19:09:15.560Z,1.45
2023-02-13T19:11:42.818Z,1.45
2023-02-13T19:14:13.018Z,1.44
2023-02-13T19:16:39.572Z,1.44
2023-02-13T19:19:07.407Z,1.49
2023-02-13T19:21:36.513Z,1.52
2023-02-13T19:24:05.575Z,1.53
2023-02-13T19:26:32.100Z,1.50
2023-02-13T19:28:59.046Z,1.48
2023-02-13T19:31:28.649Z,1.46
2023-02-13T19:33:55.618Z,1.43
2023-02-13T19:36:24.711Z,1.44
2023-02-13T19:39:00.150Z,1.45
2023-02-13T19:41:29.040Z,1.45
2023-02-13T19:43:55.969Z,1.45
2023-02-13T19:46:27.888Z,1.46
2023-02-13T19:48:55.191Z,1.48
2023-02-13T19:51:27.784Z,1.49
2023-02-13T19:54:01.599Z,1.48
2023-02-13T19:56:29.631Z,1.48
2023-02-13T19:58:56.366Z,1.48
2023-02-13T20:01:24.948Z,1.48
2023-02-13T20:03:51.850Z,1.52
2023-02-13T20:06:27.895Z,1.57
2023-02-13T20:09:01.626Z,1.57
2023-02-13T20:11:28.521Z,1.56
2023-02-13T20:13:57.064Z,1.59
2023-02-13T20:16:24.097Z,1.56
2023-02-13T20:18:50.918Z,1.56
2023-02-13T20:21:18.812Z,1.54
2023-02-13T20:23:51.001Z,1.56
2023-02-13T20:26:18.322Z,1.57
2023-02-13T20:28:46.092Z,1.59
2023-02-13T20:31:22.957Z,1.62
2023-02-13T20:33:51.474Z,1.62
2023-02-13T20:36:23.376Z,1.59
2023-02-13T20:38:52.493Z,1.59
2023-02-13T20:41:21.938Z,1.56
2023-02-13T20:43:48.487Z,1.56
2023-02-13T20:46:16.191Z,1.61
2023-02-13T20:48:45.087Z,1.60
2023-02-13T20:51:13.781Z,1.63
2023-02-13T20:53:41.706Z,1.63
2023-02-13T20:56:11.598Z,1.67
2023-02-13T20:58:38.724Z,1.65
2023-02-13T21:01:12.533Z,1.64
2023-02-13T21:03:39.237Z,1.69
2023-02-13T21:06:06.412Z,1.69
2023-02-13T21:08:32.976Z,1.67
2023-02-13T21:11:04.939Z,1.68
2023-02-13T21:13:35.383Z,1.68
2023-02-13T21:16:14.829Z,1.69
2023-02-13T21:18:43.048Z,1.79
2023-02-13T21:21:11.184Z,1.79
2023-02-13T21:23:38.178Z,1.77
2023-02-13T21:26:11.394Z,1.76
2023-02-13T21:28:38.584Z,1.75
2023-02-13T21:31:07.090Z,1.77
2023-02-13T21:33:33.804Z,1.78
2023-02-13T21:36:04.926Z,1.80
2023-02-13T21:38:31.468Z,1.78
2023-02-13T21:41:04.995Z,1.74
2023-02-13T21:43:31.606Z,1.73
2023-02-13T21:46:12.066Z,1.73
2023-02-13T21:48:40.286Z,1.76
2023-02-13T21:51:09.122Z,1.77
2023-02-13T21:53:35.840Z,1.78
2023-02-13T21:56:04.073Z,1.76
2023-02-13T21:58:34.994Z,1.73
2023-02-13T22:01:03.012Z,1.72
2023-02-13T22:03:29.609Z,1.70
2023-02-13T22:05:56.090Z,1.70
2023-02-13T22:08:22.596Z,1.70
2023-02-13T22:10:56.397Z,1.68
2023-02-13T22:13:23.845Z,1.65
2023-02-13T22:16:05.493Z,1.65
2023-02-13T22:18:34.978Z,1.64
2023-02-13T22:21:19.435Z,1.58
2023-02-13T22:23:47.487Z,1.60
2023-02-13T22:26:19.262Z,1.55
2023-02-13T22:28:46.408Z,1.56
2023-02-13T22:31:14.230Z,1.49
2023-02-13T22:33:42.750Z,1.44
2023-02-13T22:36:09.955Z,1.43
2023-02-13T22:38:38.126Z,1.45
2023-02-13T22:41:09.534Z,1.47
2023-02-13T22:43:36.869Z,1.44
2023-02-13T22:46:18.180Z,1.43
2023-02-13T22:48:47.861Z,1.40
2023-02-13T22:51:17.563Z,1.41
2023-02-13T22:53:45.498Z,1.41
2023-02-13T22:56:12.235Z,1.42
2023-02-13T22:58:39.230Z,1.39
2023-02-13T23:01:15.072Z,1.35
2023-02-13T23:03:42.316Z,1.36
2023-02-13T23:06:10.620Z,1.30
2023-02-13T23:08:37.499Z,1.26
2023-02-13T23:11:25.656Z,1.30
2023-02-13T23:13:52.628Z,1.29
2023-02-13T23:16:19.217Z,1.26
2023-02-13T23:18:51.822Z,1.27
2023-02-13T23:21:18.983Z,1.28
2023-02-13T23:23:45.505Z,1.27
2023-02-13T23:26:12.070Z,1.28
2023-02-13T23:28:38.627Z,1.29
2023-02-13T23:31:05.364Z,1.30
2023-02-13T23:33:32.173Z,1.20
2023-02-13T23:35:58.774Z,1.18
2023-02-13T23:38:25.341Z,1.11
2023-02-13T23:40:51.976Z,1.12
2023-02-13T23:43:18.527Z,1.07
2023-02-13T23:45:45.257Z,1.11
2023-02-13T23:48:12.786Z,1.10
2023-02-13T23:50:40.235Z,1.12
2023-02-13T23:53:07.704Z,1.14
2023-02-13T23:55:34.285Z,1.16
2023-02-13T23:58:01.024Z,1.13
